createdAt,value
2022-12-25T00:01:16.783Z,10.80
2022-12-25T00:03:44.105Z,10.80
2022-12-25T00:06:11.066Z,10.80
2022-12-25T00:08:39.406Z,10.70
2022-12-25T00:11:08.943Z,10.60
2022-12-25T00:13:37.525Z,10.60
2022-12-25T00:16:06.621Z,10.60
2022-12-25T00:18:33.487Z,10.60
2022-12-25T00:21:02.346Z,10.60
2022-12-25T00:23:29.971Z,10.50
2022-12-25T00:25:56.990Z,10.60
2022-12-25T00:28:24.990Z,10.50
2022-12-25T00:30:53.221Z,10.60
2022-12-25T00:33:20.215Z,10.50
2022-12-25T00:35:57.515Z,10.60
2022-12-25T00:38:24.427Z,10.60
2022-12-25T00:40:52.265Z,10.60
2022-12-25T00:43:19.138Z,10.60
2022-12-25T00:45:56.201Z,10.60
2022-12-25T00:48:23.306Z,10.60
2022-12-25T00:50:53.897Z,10.60
2022-12-25T00:53:20.828Z,10.60
2022-12-25T00:55:51.754Z,10.60
2022-12-25T00:58:18.882Z,10.50
2022-12-25T01:00:46.635Z,10.50
2022-12-25T01:03:14.950Z,10.50
2022-12-25T01:05:41.774Z,10.60
2022-12-25T01:08:08.670Z,10.60
2022-12-25T01:10:35.618Z,10.60
2022-12-25T01:13:02.481Z,10.60
2022-12-25T01:15:29.309Z,10.60
2022-12-25T01:17:56.121Z,10.60
2022-12-25T01:20:24.319Z,10.60
2022-12-25T01:22:51.113Z,10.60
2022-12-25T01:25:18.028Z,10.60
2022-12-25T01:27:44.904Z,10.60
2022-12-25T01:30:12.247Z,10.50
2022-12-25T01:32:39.094Z,10.50
2022-12-25T01:35:06.674Z,10.50
2022-12-25T01:37:34.857Z,10.50
2022-12-25T01:40:01.748Z,10.50
2022-12-25T01:42:28.890Z,10.50
2022-12-25T01:45:33.727Z,10.40
2022-12-25T01:48:03.332Z,10.40
2022-12-25T01:50:30.445Z,10.40
2022-12-25T01:52:58.980Z,10.40
2022-12-25T01:55:27.721Z,10.40
2022-12-25T01:57:54.683Z,10.40
2022-12-25T02:00:21.918Z,10.40
2022-12-25T02:02:49.372Z,10.40
2022-12-25T02:05:22.131Z,10.40
2022-12-25T02:07:50.662Z,10.40
2022-12-25T02:10:19.081Z,10.40
2022-12-25T02:12:47.439Z,10.40
2022-12-25T02:15:19.833Z,10.40
2022-12-25T02:17:56.544Z,10.40
2022-12-25T02:20:54.357Z,10.30
2022-12-25T02:23:48.293Z,10.30
2022-12-25T02:26:53.800Z,10.30
2022-12-25T02:29:30.554Z,10.30
2022-12-25T02:32:01.409Z,10.30
2022-12-25T02:34:35.596Z,10.20
2022-12-25T02:37:06.306Z,10.20
2022-12-25T02:40:00.806Z,10.20
2022-12-25T02:42:53.229Z,10.20
2022-12-25T02:45:46.522Z,10.20
2022-12-25T02:48:33.559Z,10.30
2022-12-25T02:51:23.764Z,10.30
2022-12-25T02:54:12.279Z,10.30
2022-12-25T02:57:00.797Z,10.30
2022-12-25T02:59:48.091Z,10.30
2022-12-25T03:02:37.122Z,10.30
2022-12-25T03:05:26.114Z,10.20
2022-12-25T03:07:53.409Z,10.20
2022-12-25T03:10:41.016Z,10.20
2022-12-25T03:13:12.654Z,10.30
2022-12-25T03:15:58.461Z,10.30
2022-12-25T03:18:29.087Z,10.30
2022-12-25T03:21:14.375Z,10.40
2022-12-25T03:24:03.119Z,10.40
2022-12-25T03:26:48.355Z,10.40
2022-12-25T03:29:35.212Z,10.40
2022-12-25T03:32:08.984Z,10.50
2022-12-25T03:35:01.670Z,10.60
2022-12-25T03:37:43.775Z,10.60
2022-12-25T03:40:35.808Z,10.60
2022-12-25T03:43:29.070Z,10.70
2022-12-25T03:46:20.725Z,10.70
2022-12-25T03:49:10.648Z,10.70
2022-12-25T03:51:58.979Z,10.80
2022-12-25T03:54:49.129Z,10.80
2022-12-25T03:57:34.358Z,10.80
2022-12-25T04:00:19.614Z,10.80
2022-12-25T04:03:05.226Z,10.90
2022-12-25T04:05:50.531Z,10.90
2022-12-25T04:08:37.541Z,10.90
2022-12-25T04:11:22.747Z,10.90
2022-12-25T04:14:08.208Z,10.90
2022-12-25T04:16:53.478Z,10.90
2022-12-25T04:19:38.647Z,10.90
2022-12-25T04:22:23.991Z,10.90
2022-12-25T04:25:10.715Z,10.90
2022-12-25T04:27:56.229Z,10.90
2022-12-25T04:30:41.541Z,10.90
2022-12-25T04:33:26.753Z,10.90
2022-12-25T04:36:12.055Z,11.00
2022-12-25T04:38:40.473Z,11.00
2022-12-25T04:41:10.307Z,11.00
2022-12-25T04:43:37.272Z,11.00
2022-12-25T04:46:05.568Z,11.00
2022-12-25T04:48:35.090Z,11.00
2022-12-25T04:51:13.786Z,11.00
2022-12-25T04:53:40.920Z,11.00
2022-12-25T04:56:09.422Z,11.00
2022-12-25T04:58:36.318Z,11.00
2022-12-25T05:01:03.726Z,11.00
2022-12-25T05:03:31.526Z,11.00
2022-12-25T05:05:58.859Z,11.00
2022-12-25T05:08:25.814Z,11.00
2022-12-25T05:10:52.615Z,11.00
2022-12-25T05:13:20.841Z,11.00
2022-12-25T05:15:47.869Z,11.00
2022-12-25T05:18:14.765Z,11.00
2022-12-25T05:20:41.579Z,11.00
2022-12-25T05:23:10.557Z,11.00
2022-12-25T05:25:39.342Z,11.10
2022-12-25T05:28:06.233Z,11.00
2022-12-25T05:30:35.069Z,11.00
2022-12-25T05:33:02.294Z,11.00
2022-12-25T05:35:29.167Z,11.00
2022-12-25T05:37:56.119Z,11.00
2022-12-25T05:40:23.267Z,11.00
2022-12-25T05:42:50.175Z,11.00
2022-12-25T05:45:17.064Z,11.00
2022-12-25T05:47:45.276Z,11.00
2022-12-25T05:50:12.234Z,11.00
2022-12-25T05:52:39.239Z,11.00
2022-12-25T05:55:06.797Z,11.10
2022-12-25T05:57:33.841Z,11.00
2022-12-25T06:00:00.631Z,11.00
2022-12-25T06:02:27.709Z,11.00
2022-12-25T06:04:55.948Z,11.00
2022-12-25T06:07:22.941Z,11.00
2022-12-25T06:09:49.764Z,11.00
2022-12-25T06:12:16.706Z,11.00
2022-12-25T06:14:43.496Z,11.00
2022-12-25T06:17:10.365Z,11.00
2022-12-25T06:19:37.543Z,11.00
2022-12-25T06:22:05.699Z,11.00
2022-12-25T06:24:32.695Z,11.00
2022-12-25T06:26:59.517Z,11.00
2022-12-25T06:29:26.543Z,11.00
2022-12-25T06:31:57.278Z,11.00
2022-12-25T06:34:24.502Z,11.00
2022-12-25T06:36:51.435Z,11.00
2022-12-25T06:39:21.303Z,11.00
2022-12-25T06:41:48.376Z,11.00
2022-12-25T06:44:15.211Z,11.00
2022-12-25T06:46:42.097Z,11.00
2022-12-25T06:49:10.348Z,11.00
2022-12-25T06:51:37.247Z,11.00
2022-12-25T06:54:04.562Z,11.00
2022-12-25T06:56:34.084Z,11.00
2022-12-25T06:59:03.009Z,11.00
2022-12-25T07:01:32.080Z,11.00
2022-12-25T07:04:01.917Z,11.00
2022-12-25T07:06:29.050Z,11.00
2022-12-25T07:08:55.934Z,11.00
2022-12-25T07:11:23.268Z,11.00
2022-12-25T07:13:51.519Z,11.00
2022-12-25T07:16:18.492Z,11.00
2022-12-25T07:18:45.406Z,11.00
2022-12-25T07:21:14.662Z,11.00
2022-12-25T07:23:41.856Z,11.00
2022-12-25T07:26:10.844Z,11.00
2022-12-25T07:28:37.815Z,11.00
2022-12-25T07:31:08.040Z,11.00
2022-12-25T07:33:34.980Z,11.00
2022-12-25T07:36:02.339Z,11.00
2022-12-25T07:38:29.269Z,11.00
2022-12-25T07:40:56.123Z,10.90
2022-12-25T07:43:23.302Z,11.00
2022-12-25T07:45:55.058Z,10.90
2022-12-25T07:48:23.246Z,10.90
2022-12-25T07:50:55.999Z,10.90
2022-12-25T07:53:22.899Z,11.00
2022-12-25T07:55:56.884Z,10.90
2022-12-25T07:58:23.903Z,11.00
2022-12-25T08:00:50.788Z,11.00
2022-12-25T08:03:18.609Z,11.00
2022-12-25T08:05:46.966Z,11.00
2022-12-25T08:08:13.789Z,11.00
2022-12-25T08:10:45.527Z,11.00
2022-12-25T08:13:14.704Z,11.00
2022-12-25T08:15:42.176Z,11.00
2022-12-25T08:18:09.434Z,11.00
2022-12-25T08:20:36.768Z,11.00
2022-12-25T08:23:05.494Z,11.00
2022-12-25T08:25:32.991Z,11.10
2022-12-25T08:28:01.398Z,11.10
2022-12-25T08:30:28.743Z,11.10
2022-12-25T08:32:55.698Z,11.10
2022-12-25T08:35:22.821Z,11.20
2022-12-25T08:37:49.747Z,11.20
2022-12-25T08:40:18.469Z,11.20
2022-12-25T08:42:45.366Z,11.20
2022-12-25T08:45:12.376Z,11.20
2022-12-25T08:47:39.286Z,11.20
2022-12-25T08:50:07.808Z,11.20
2022-12-25T08:52:35.112Z,11.20
2022-12-25T08:55:02.046Z,11.20
2022-12-25T08:57:30.255Z,11.20
2022-12-25T08:59:57.114Z,11.20
2022-12-25T09:02:24.153Z,11.20
2022-12-25T09:04:51.139Z,11.20
2022-12-25T09:07:18.261Z,11.10
2022-12-25T09:09:45.124Z,11.20
2022-12-25T09:12:12.221Z,11.20
2022-12-25T09:14:40.785Z,11.10
2022-12-25T09:17:07.693Z,11.20
2022-12-25T09:19:34.876Z,11.20
2022-12-25T09:22:01.943Z,11.20
2022-12-25T09:24:28.805Z,11.20
2022-12-25T09:26:55.903Z,11.20
2022-12-25T09:29:22.899Z,11.20
2022-12-25T09:31:51.154Z,11.20
2022-12-25T09:34:19.154Z,11.20
2022-12-25T09:36:46.455Z,11.20
2022-12-25T09:39:13.320Z,11.20
2022-12-25T09:41:50.253Z,11.20
2022-12-25T09:44:21.688Z,11.20
2022-12-25T09:46:54.992Z,11.20
2022-12-25T09:49:32.983Z,11.30
2022-12-25T09:52:03.302Z,11.30
2022-12-25T09:54:42.968Z,11.30
2022-12-25T09:57:12.127Z,11.30
2022-12-25T09:59:39.757Z,11.30
2022-12-25T10:02:41.487Z,11.30
2022-12-25T10:05:25.588Z,11.40
2022-12-25T10:08:01.226Z,11.40
2022-12-25T10:10:48.938Z,11.50
2022-12-25T10:13:34.118Z,11.50
2022-12-25T10:16:14.509Z,11.60
2022-12-25T10:18:55.404Z,11.70
2022-12-25T10:21:23.505Z,11.90
2022-12-25T10:24:00.134Z,12.30
2022-12-25T10:26:30.546Z,12.60
2022-12-25T10:29:01.722Z,12.90
2022-12-25T10:31:33.365Z,13.00
2022-12-25T10:34:02.101Z,13.10
2022-12-25T10:36:30.245Z,13.20
2022-12-25T10:38:57.427Z,13.20
2022-12-25T10:41:40.726Z,13.30
2022-12-25T10:44:13.726Z,13.30
2022-12-25T10:46:41.879Z,13.30
2022-12-25T10:49:15.432Z,13.30
2022-12-25T10:51:42.810Z,13.20
2022-12-25T10:54:20.637Z,13.20
2022-12-25T10:56:53.602Z,13.10
2022-12-25T10:59:20.890Z,13.00
2022-12-25T11:01:51.145Z,13.00
2022-12-25T11:04:28.678Z,12.90
2022-12-25T11:06:58.095Z,12.90
2022-12-25T11:09:24.995Z,12.80
2022-12-25T11:11:51.974Z,12.80
2022-12-25T11:14:22.723Z,12.80
2022-12-25T11:16:50.521Z,12.80
2022-12-25T11:19:27.058Z,12.70
2022-12-25T11:21:56.206Z,12.80
2022-12-25T11:24:26.425Z,12.80
2022-12-25T11:26:55.590Z,12.80
2022-12-25T11:29:27.475Z,12.80
2022-12-25T11:31:57.811Z,12.80
2022-12-25T11:34:32.054Z,12.80
2022-12-25T11:37:01.393Z,12.90
2022-12-25T11:39:30.590Z,12.90
2022-12-25T11:42:02.295Z,12.90
2022-12-25T11:44:38.495Z,12.80
2022-12-25T11:47:13.082Z,12.80
2022-12-25T11:49:49.865Z,12.80
2022-12-25T11:52:19.696Z,12.70
2022-12-25T11:54:53.302Z,12.70
2022-12-25T11:57:22.899Z,12.60
2022-12-25T11:59:56.009Z,12.50
2022-12-25T12:02:29.842Z,12.50
2022-12-25T12:05:08.135Z,12.40
2022-12-25T12:07:37.457Z,12.40
2022-12-25T12:10:13.744Z,12.40
2022-12-25T12:12:50.298Z,12.40
2022-12-25T12:15:29.265Z,12.30
2022-12-25T12:18:07.623Z,12.30
2022-12-25T12:20:37.151Z,12.30
2022-12-25T12:23:13.352Z,12.40
2022-12-25T12:25:42.755Z,12.40
2022-12-25T12:28:20.018Z,12.40
2022-12-25T12:30:57.724Z,12.50
2022-12-25T12:33:29.377Z,12.60
2022-12-25T12:35:58.209Z,12.60
2022-12-25T12:38:25.599Z,12.50
2022-12-25T12:40:54.830Z,12.50
2022-12-25T12:43:31.785Z,12.50
2022-12-25T12:46:04.335Z,12.50
2022-12-25T12:48:38.735Z,12.50
2022-12-25T12:51:09.311Z,12.60
2022-12-25T12:53:38.210Z,12.70
2022-12-25T12:56:16.570Z,12.70
2022-12-25T12:58:48.451Z,12.80
2022-12-25T13:01:36.315Z,12.80
2022-12-25T13:04:31.287Z,12.80
2022-12-25T13:07:10.168Z,12.70
2022-12-25T13:09:51.166Z,12.60
2022-12-25T13:12:19.434Z,12.60
2022-12-25T13:14:47.239Z,12.60
2022-12-25T13:17:18.363Z,12.50
2022-12-25T13:19:45.783Z,12.50
2022-12-25T13:22:24.703Z,12.50
2022-12-25T13:24:57.116Z,12.60
2022-12-25T13:27:26.399Z,12.60
2022-12-25T13:29:53.280Z,12.60
2022-12-25T13:32:24.410Z,12.60
2022-12-25T13:34:52.444Z,12.60
2022-12-25T13:37:23.306Z,12.50
2022-12-25T13:39:53.296Z,12.60
2022-12-25T13:42:23.813Z,12.60
2022-12-25T13:44:53.919Z,12.50
2022-12-25T13:47:24.478Z,12.50
2022-12-25T13:49:53.623Z,12.50
2022-12-25T13:52:27.037Z,12.50
2022-12-25T13:54:59.740Z,12.50
2022-12-25T13:57:33.480Z,12.50
2022-12-25T14:00:01.302Z,12.50
2022-12-25T14:02:31.690Z,12.50
2022-12-25T14:04:58.778Z,12.50
2022-12-25T14:07:27.917Z,12.50
2022-12-25T14:09:58.289Z,12.50
2022-12-25T14:12:28.017Z,12.50
2022-12-25T14:14:56.773Z,12.50
2022-12-25T14:17:24.449Z,12.50
2022-12-25T14:20:05.632Z,12.50
2022-12-25T14:22:38.384Z,12.50
2022-12-25T14:25:14.697Z,12.50
2022-12-25T14:27:47.505Z,12.50
2022-12-25T14:30:14.913Z,12.50
2022-12-25T14:32:46.241Z,12.50
2022-12-25T14:35:16.895Z,12.50
2022-12-25T14:37:54.662Z,12.50
2022-12-25T14:40:25.103Z,12.50
2022-12-25T14:42:56.630Z,12.50
2022-12-25T14:45:29.461Z,12.40
2022-12-25T14:47:58.831Z,12.40
2022-12-25T14:50:27.887Z,12.40
2022-12-25T14:52:57.050Z,12.40
2022-12-25T14:55:27.359Z,12.40
2022-12-25T14:57:58.557Z,12.40
2022-12-25T15:00:28.568Z,12.40
2022-12-25T15:02:57.855Z,12.40
2022-12-25T15:05:32.168Z,12.30
2022-12-25T15:08:24.710Z,12.30
2022-12-25T15:11:01.870Z,12.30
2022-12-25T15:13:30.605Z,12.30
2022-12-25T15:16:01.284Z,12.30
2022-12-25T15:18:31.951Z,12.30
2022-12-25T15:20:59.204Z,12.30
2022-12-25T15:23:27.466Z,12.30
2022-12-25T15:25:54.273Z,12.30
2022-12-25T15:28:21.493Z,12.30
2022-12-25T15:30:49.757Z,12.30
2022-12-25T15:33:18.425Z,12.30
2022-12-25T15:35:45.730Z,12.30
2022-12-25T15:38:13.285Z,12.30
2022-12-25T15:40:42.626Z,12.30
2022-12-25T15:43:38.854Z,12.30
2022-12-25T15:46:00.906Z,12.30
2022-12-25T15:48:27.843Z,12.30
2022-12-25T15:50:54.648Z,12.30
2022-12-25T15:53:21.437Z,12.30
2022-12-25T15:55:49.628Z,12.30
2022-12-25T15:58:16.448Z,12.30
2022-12-25T16:00:43.260Z,12.30
2022-12-25T16:03:10.351Z,12.30
2022-12-25T16:05:37.554Z,12.30
2022-12-25T16:08:04.793Z,12.30
2022-12-25T16:10:38.210Z,12.30
2022-12-25T16:13:07.053Z,12.30
2022-12-25T16:15:33.913Z,12.30
2022-12-25T16:18:00.768Z,12.30
2022-12-25T16:20:27.629Z,12.30
2022-12-25T16:22:54.471Z,12.30
2022-12-25T16:25:21.573Z,12.30
2022-12-25T16:27:48.553Z,12.30
2022-12-25T16:30:18.219Z,12.30
2022-12-25T16:32:50.140Z,12.30
2022-12-25T16:35:17.849Z,12.30
2022-12-25T16:37:44.740Z,12.30
2022-12-25T16:40:11.963Z,12.30
2022-12-25T16:42:38.904Z,12.30
2022-12-25T16:45:06.733Z,12.30
2022-12-25T16:47:35.033Z,12.30
2022-12-25T16:50:03.592Z,12.30
2022-12-25T16:52:31.698Z,12.20
2022-12-25T16:54:58.694Z,12.20
2022-12-25T16:57:25.497Z,12.20
2022-12-25T16:59:52.403Z,12.20
2022-12-25T17:02:21.356Z,12.20
2022-12-25T17:04:49.726Z,12.20
2022-12-25T17:07:17.530Z,12.20
2022-12-25T17:09:47.599Z,12.10
2022-12-25T17:12:14.512Z,12.10
2022-12-25T17:14:41.971Z,12.10
2022-12-25T17:17:08.860Z,12.00
2022-12-25T17:19:35.712Z,12.00
2022-12-25T17:22:04.036Z,12.00
2022-12-25T17:24:30.934Z,12.00
2022-12-25T17:26:57.817Z,11.90
2022-12-25T17:29:25.074Z,11.90
2022-12-25T17:31:52.489Z,11.90
2022-12-25T17:34:19.757Z,11.90
2022-12-25T17:36:46.741Z,11.90
2022-12-25T17:39:15.252Z,12.00
2022-12-25T17:41:42.097Z,12.00
2022-12-25T17:44:09.652Z,11.90
2022-12-25T17:46:37.638Z,11.90
2022-12-25T17:49:04.769Z,11.80
2022-12-25T17:51:32.727Z,11.80
2022-12-25T17:54:03.113Z,11.80
2022-12-25T17:56:32.465Z,11.80
2022-12-25T17:59:01.173Z,11.90
2022-12-25T18:01:28.847Z,11.90
2022-12-25T18:03:56.054Z,11.90
2022-12-25T18:06:25.165Z,11.90
2022-12-25T18:08:53.974Z,12.00
2022-12-25T18:11:23.949Z,12.00
2022-12-25T18:13:53.484Z,12.00
2022-12-25T18:16:23.486Z,12.10
2022-12-25T18:18:52.733Z,12.10
2022-12-25T18:21:21.156Z,12.10
2022-12-25T18:23:48.260Z,12.20
2022-12-25T18:26:15.193Z,12.10
2022-12-25T18:28:42.818Z,12.10
2022-12-25T18:31:15.539Z,12.10
2022-12-25T18:33:42.734Z,12.10
2022-12-25T18:36:11.003Z,12.00
2022-12-25T18:38:37.950Z,12.00
2022-12-25T18:41:07.117Z,12.00
2022-12-25T18:43:53.961Z,12.00
2022-12-25T18:46:24.461Z,12.00
2022-12-25T18:48:52.383Z,12.00
2022-12-25T18:51:19.689Z,12.00
2022-12-25T18:53:46.635Z,12.00
2022-12-25T18:56:15.688Z,12.10
2022-12-25T18:58:43.381Z,12.10
2022-12-25T19:01:11.905Z,12.10
2022-12-25T19:03:40.226Z,12.10
2022-12-25T19:06:07.524Z,12.20
2022-12-25T19:08:34.605Z,12.20
2022-12-25T19:11:06.896Z,12.10
2022-12-25T19:13:33.839Z,12.10
2022-12-25T19:16:00.790Z,12.10
2022-12-25T19:18:27.774Z,12.00
2022-12-25T19:20:56.027Z,12.00
2022-12-25T19:23:22.938Z,11.90
2022-12-25T19:25:49.805Z,11.90
2022-12-25T19:28:17.789Z,11.90
2022-12-25T19:30:44.732Z,11.90
2022-12-25T19:33:17.493Z,11.90
2022-12-25T19:35:44.967Z,11.90
2022-12-25T19:38:13.134Z,11.90
2022-12-25T19:40:41.599Z,11.90
2022-12-25T19:43:08.454Z,11.80
2022-12-25T19:45:35.344Z,11.80
2022-12-25T19:48:02.255Z,11.80
2022-12-25T19:50:32.325Z,11.80
2022-12-25T19:52:59.199Z,11.80
2022-12-25T19:55:27.435Z,11.80
2022-12-25T19:57:55.310Z,11.80
2022-12-25T20:00:22.211Z,11.70
2022-12-25T20:02:49.143Z,11.70
2022-12-25T20:05:16.383Z,11.70
2022-12-25T20:07:43.381Z,11.70
2022-12-25T20:10:10.505Z,11.70
2022-12-25T20:12:38.757Z,11.70
2022-12-25T20:15:07.309Z,11.70
2022-12-25T20:17:34.263Z,11.70
2022-12-25T20:20:01.240Z,11.70
2022-12-25T20:22:29.260Z,11.60
2022-12-25T20:24:56.183Z,11.60
2022-12-25T20:27:23.059Z,11.70
2022-12-25T20:29:51.301Z,11.70
2022-12-25T20:32:18.244Z,11.70
2022-12-25T20:34:45.132Z,11.60
2022-12-25T20:37:11.995Z,11.70
2022-12-25T20:39:38.970Z,11.60
2022-12-25T20:42:06.211Z,11.60
2022-12-25T20:44:33.128Z,11.60
2022-12-25T20:47:03.262Z,11.60
2022-12-25T20:49:32.630Z,11.60
2022-12-25T20:52:04.946Z,11.50
2022-12-25T20:54:32.601Z,11.50
2022-12-25T20:56:59.455Z,11.50
2022-12-25T20:59:27.215Z,11.50
2022-12-25T21:01:56.666Z,11.50
2022-12-25T21:04:25.102Z,11.50
2022-12-25T21:06:52.273Z,11.50
2022-12-25T21:09:19.123Z,11.50
2022-12-25T21:11:45.960Z,11.50
2022-12-25T21:14:12.725Z,11.40
2022-12-25T21:16:39.647Z,11.40
2022-12-25T21:19:06.519Z,11.40
2022-12-25T21:21:36.009Z,11.40
2022-12-25T21:24:03.010Z,11.40
2022-12-25T21:26:31.773Z,11.40
2022-12-25T21:29:01.403Z,11.40
2022-12-25T21:31:28.982Z,11.40
2022-12-25T21:33:57.485Z,11.40
2022-12-25T21:36:27.216Z,11.40
2022-12-25T21:38:57.781Z,11.40
2022-12-25T21:41:25.352Z,11.40
2022-12-25T21:43:52.597Z,11.50
2022-12-25T21:46:19.701Z,11.50
2022-12-25T21:48:46.764Z,11.50
2022-12-25T21:51:34.779Z,11.60
2022-12-25T21:54:04.061Z,11.60
2022-12-25T21:56:32.106Z,11.60
2022-12-25T21:59:00.119Z,11.60
2022-12-25T22:01:27.306Z,11.60
2022-12-25T22:03:54.286Z,11.70
2022-12-25T22:06:39.606Z,11.80
2022-12-25T22:09:08.529Z,11.80
2022-12-25T22:11:54.164Z,11.80
2022-12-25T22:14:52.741Z,11.80
2022-12-25T22:17:40.803Z,11.70
2022-12-25T22:20:10.845Z,11.70
2022-12-25T22:22:37.812Z,11.70
2022-12-25T22:25:07.145Z,11.70
2022-12-25T22:27:35.872Z,11.70
2022-12-25T22:30:02.865Z,11.70
2022-12-25T22:32:29.745Z,11.70
2022-12-25T22:34:56.708Z,11.70
2022-12-25T22:37:23.833Z,11.70
2022-12-25T22:39:50.668Z,11.80
2022-12-25T22:42:19.330Z,11.80
2022-12-25T22:44:47.561Z,11.80
2022-12-25T22:47:15.289Z,11.80
2022-12-25T22:49:42.144Z,11.90
2022-12-25T22:52:09.863Z,11.90
2022-12-25T22:54:37.205Z,11.90
2022-12-25T22:57:04.458Z,11.90
2022-12-25T22:59:33.105Z,11.90
2022-12-25T23:02:00.574Z,11.90
2022-12-25T23:04:28.061Z,11.90
2022-12-25T23:06:55.004Z,11.90
2022-12-25T23:09:27.444Z,12.00
2022-12-25T23:11:55.512Z,12.00
2022-12-25T23:14:41.626Z,12.00
2022-12-25T23:17:30.462Z,12.00
2022-12-25T23:20:17.065Z,11.90
2022-12-25T23:23:02.328Z,12.00
2022-12-25T23:25:48.890Z,11.90
2022-12-25T23:28:35.812Z,11.90
2022-12-25T23:31:02.766Z,11.90
2022-12-25T23:33:31.039Z,11.90
2022-12-25T23:35:57.936Z,11.90
2022-12-25T23:38:24.979Z,11.90
2022-12-25T23:40:52.300Z,11.90
2022-12-25T23:43:19.171Z,11.90
2022-12-25T23:45:46.112Z,12.00
2022-12-25T23:48:12.977Z,11.90
2022-12-25T23:50:41.160Z,11.90
2022-12-25T23:53:08.067Z,11.90
2022-12-25T23:55:34.907Z,11.90
2022-12-25T23:58:01.795Z,11.90
